createdAt,value
2023-02-19T00:00:49.674Z,1.40
2023-02-19T00:03:58.610Z,1.48
2023-02-19T00:07:01.385Z,1.00
2023-02-19T00:10:04.219Z,1.88
2023-02-19T00:13:07.151Z,1.00
2023-02-19T00:16:13.422Z,1.13
2023-02-19T00:19:19.315Z,1.00
2023-02-19T00:22:21.862Z,1.42
2023-02-19T00:25:24.588Z,1.15
2023-02-19T00:28:27.523Z,2.20
2023-02-19T00:31:33.678Z,2.00
2023-02-19T00:34:36.468Z,1.73
2023-02-19T00:37:39.201Z,1.73
2023-02-19T00:40:42.341Z,1.05
2023-02-19T00:43:55.149Z,1.30
2023-02-19T00:46:57.827Z,1.05
2023-02-19T00:50:00.637Z,0.90
2023-02-19T00:53:03.206Z,0.80
2023-02-19T00:56:06.808Z,0.52
2023-02-19T00:59:09.841Z,0.77
2023-02-19T01:02:13.141Z,0.50
2023-02-19T01:05:15.826Z,0.50
2023-02-19T01:08:19.628Z,0.50
2023-02-19T01:11:22.439Z,0.95
2023-02-19T01:14:25.193Z,1.50
2023-02-19T01:17:28.046Z,1.50
2023-02-19T01:20:31.133Z,1.37
2023-02-19T01:23:34.217Z,1.58
2023-02-19T01:26:36.975Z,1.88
2023-02-19T01:29:39.635Z,1.97
2023-02-19T01:32:42.254Z,2.13
2023-02-19T01:35:45.048Z,1.83
2023-02-19T01:38:48.166Z,2.38
2023-02-19T01:41:51.139Z,1.58
2023-02-19T01:45:33.757Z,2.17
2023-02-19T01:48:39.749Z,2.05
2023-02-19T01:51:47.632Z,1.97
2023-02-19T01:54:50.682Z,1.75
2023-02-19T01:57:56.008Z,1.85
2023-02-19T02:01:02.544Z,1.30
2023-02-19T02:04:07.967Z,1.55
2023-02-19T02:07:34.655Z,1.40
2023-02-19T02:10:37.357Z,1.92
2023-02-19T02:13:40.825Z,1.60
2023-02-19T02:17:08.231Z,1.02
2023-02-19T02:20:14.791Z,1.45
2023-02-19T02:23:46.327Z,1.53
2023-02-19T02:27:10.779Z,1.30
2023-02-19T02:30:19.680Z,1.45
2023-02-19T02:33:44.584Z,1.03
2023-02-19T02:36:53.162Z,1.48
2023-02-19T02:39:58.478Z,1.15
2023-02-19T02:43:01.387Z,0.90
2023-02-19T02:46:04.503Z,1.40
2023-02-19T02:49:22.118Z,1.10
2023-02-19T02:52:45.306Z,0.90
2023-02-19T02:55:53.399Z,0.70
2023-02-19T02:58:58.401Z,1.25
2023-02-19T03:02:13.015Z,0.82
2023-02-19T03:05:39.072Z,0.83
2023-02-19T03:08:53.159Z,0.63
2023-02-19T03:12:19.133Z,0.80
2023-02-19T03:15:45.926Z,0.93
2023-02-19T03:19:12.462Z,0.93
2023-02-19T03:22:32.021Z,0.70
2023-02-19T03:25:57.037Z,0.82
2023-02-19T03:29:27.286Z,0.63
2023-02-19T03:32:46.572Z,0.68
2023-02-19T03:36:12.946Z,0.95
2023-02-19T03:39:20.068Z,0.80
2023-02-19T03:42:39.984Z,0.82
2023-02-19T03:45:56.117Z,0.50
2023-02-19T03:49:07.979Z,0.75
2023-02-19T03:52:30.695Z,0.82
2023-02-19T03:55:39.708Z,0.70
2023-02-19T03:59:28.097Z,0.80
2023-02-19T04:02:37.130Z,0.70
2023-02-19T04:05:48.805Z,0.55
2023-02-19T04:08:55.924Z,1.52
2023-02-19T04:11:59.969Z,2.50
2023-02-19T04:15:10.474Z,1.67
2023-02-19T04:18:17.779Z,0.93
2023-02-19T04:21:22.478Z,1.20
2023-02-19T04:24:48.443Z,0.88
2023-02-19T04:27:51.242Z,0.75
2023-02-19T04:30:54.012Z,0.77
2023-02-19T04:33:56.872Z,0.53
2023-02-19T04:36:59.563Z,0.80
2023-02-19T04:40:02.277Z,0.60
2023-02-19T04:43:04.943Z,0.47
2023-02-19T04:46:07.809Z,0.80
2023-02-19T04:49:10.503Z,0.70
2023-02-19T04:52:13.499Z,0.82
2023-02-19T04:55:16.117Z,0.70
2023-02-19T04:58:19.486Z,0.68
2023-02-19T05:01:22.297Z,0.70
2023-02-19T05:04:25.155Z,0.70
2023-02-19T05:07:27.882Z,0.82
2023-02-19T05:10:30.731Z,0.63
2023-02-19T05:13:34.191Z,0.70
2023-02-19T05:16:36.981Z,0.50
2023-02-19T05:19:39.568Z,0.80
2023-02-19T05:22:42.171Z,1.00
2023-02-19T05:25:45.088Z,1.00
2023-02-19T05:28:50.095Z,0.90
2023-02-19T05:31:52.958Z,0.70
2023-02-19T05:34:55.792Z,0.30
2023-02-19T05:37:58.613Z,0.68
2023-02-19T05:41:14.806Z,1.20
2023-02-19T05:44:17.470Z,1.53
2023-02-19T05:47:20.209Z,0.70
2023-02-19T05:50:24.068Z,0.57
2023-02-19T05:53:26.947Z,0.30
2023-02-19T05:56:42.336Z,0.30
2023-02-19T05:59:45.658Z,0.70
2023-02-19T06:02:48.696Z,0.60
2023-02-19T06:05:51.400Z,0.60
2023-02-19T06:08:54.275Z,0.68
2023-02-19T06:11:57.297Z,1.00
2023-02-19T06:15:00.091Z,0.47
2023-02-19T06:18:03.171Z,1.67
2023-02-19T06:21:07.935Z,2.83
2023-02-19T06:24:10.651Z,3.28
2023-02-19T06:27:13.255Z,5.07
2023-02-19T06:30:16.141Z,3.33
2023-02-19T06:33:19.618Z,5.85
2023-02-19T06:36:23.846Z,6.13
2023-02-19T06:39:27.154Z,3.65
2023-02-19T06:42:33.300Z,1.98
2023-02-19T06:45:36.172Z,4.57
2023-02-19T06:48:39.936Z,4.90
2023-02-19T06:51:42.819Z,1.70
2023-02-19T06:54:45.619Z,1.23
2023-02-19T06:57:48.313Z,1.40
2023-02-19T07:00:51.286Z,3.42
2023-02-19T07:03:54.597Z,2.08
2023-02-19T07:06:57.779Z,1.87
2023-02-19T07:10:00.497Z,0.30
2023-02-19T07:13:03.313Z,0.90
2023-02-19T07:16:08.975Z,1.20
2023-02-19T07:19:12.219Z,0.70
2023-02-19T07:22:15.325Z,0.73
2023-02-19T07:25:18.084Z,1.00
2023-02-19T07:28:20.820Z,1.10
2023-02-19T07:31:24.737Z,1.63
2023-02-19T07:34:27.853Z,0.90
2023-02-19T07:37:30.724Z,1.50
2023-02-19T07:40:34.559Z,1.40
2023-02-19T07:43:38.641Z,0.50
2023-02-19T07:46:41.772Z,0.70
2023-02-19T07:49:44.553Z,0.45
2023-02-19T07:52:47.281Z,0.80
2023-02-19T07:55:50.608Z,1.95
2023-02-19T07:58:53.364Z,1.02
2023-02-19T08:02:15.024Z,1.40
2023-02-19T08:05:17.813Z,1.13
2023-02-19T08:08:20.481Z,0.70
2023-02-19T08:11:42.318Z,1.05
2023-02-19T08:14:44.948Z,0.90
2023-02-19T08:17:47.670Z,1.20
2023-02-19T08:20:50.854Z,1.13
2023-02-19T08:23:53.402Z,1.00
2023-02-19T08:26:56.294Z,0.93
2023-02-19T08:29:58.960Z,1.10
2023-02-19T08:33:02.583Z,1.08
2023-02-19T08:36:07.007Z,1.40
2023-02-19T08:39:10.407Z,1.10
2023-02-19T08:42:13.041Z,0.75
2023-02-19T08:45:15.890Z,0.93
2023-02-19T08:48:18.628Z,0.80
2023-02-19T08:51:21.681Z,1.20
2023-02-19T08:54:25.798Z,0.70
2023-02-19T08:57:29.476Z,0.88
2023-02-19T09:00:32.204Z,0.63
2023-02-19T09:03:35.199Z,1.38
2023-02-19T09:06:40.005Z,1.20
2023-02-19T09:09:43.439Z,0.80
2023-02-19T09:12:45.953Z,1.40
2023-02-19T09:15:48.721Z,0.90
2023-02-19T09:18:52.010Z,1.20
2023-02-19T09:21:55.139Z,0.85
2023-02-19T09:24:57.948Z,1.00
2023-02-19T09:28:00.687Z,1.15
2023-02-19T09:31:06.218Z,0.98
2023-02-19T09:34:09.649Z,0.60
2023-02-19T09:37:12.251Z,0.98
2023-02-19T09:40:21.506Z,1.00
2023-02-19T09:43:27.898Z,1.05
2023-02-19T09:46:44.309Z,0.68
2023-02-19T09:49:53.256Z,1.10
2023-02-19T09:53:01.558Z,0.60
2023-02-19T09:56:05.017Z,0.75
2023-02-19T09:59:18.559Z,0.90
2023-02-19T10:02:24.236Z,0.73
2023-02-19T10:05:27.770Z,0.70
2023-02-19T10:08:34.200Z,0.50
2023-02-19T10:11:37.713Z,0.70
2023-02-19T10:14:45.223Z,0.70
2023-02-19T10:17:48.015Z,0.80
2023-02-19T10:20:52.550Z,0.80
2023-02-19T10:23:59.653Z,0.70
2023-02-19T10:27:02.383Z,0.70
2023-02-19T10:30:06.356Z,1.15
2023-02-19T10:33:15.239Z,1.00
2023-02-19T10:36:32.421Z,0.88
2023-02-19T10:39:46.997Z,0.50
2023-02-19T10:42:54.315Z,0.67
2023-02-19T10:45:58.559Z,0.80
2023-02-19T10:49:39.488Z,0.45
2023-02-19T10:52:42.433Z,0.40
2023-02-19T10:55:46.752Z,0.47
2023-02-19T10:58:49.864Z,0.50
2023-02-19T11:02:17.151Z,0.40
2023-02-19T11:05:20.394Z,1.10
2023-02-19T11:08:24.504Z,1.90
2023-02-19T11:11:29.550Z,2.40
2023-02-19T11:14:34.776Z,2.90
2023-02-19T11:17:37.566Z,2.05
2023-02-19T11:20:54.588Z,2.00
2023-02-19T11:23:57.324Z,1.63
2023-02-19T11:27:06.125Z,0.90
2023-02-19T11:30:42.586Z,1.33
2023-02-19T11:34:14.750Z,0.93
2023-02-19T11:37:21.355Z,1.20
2023-02-19T11:40:35.686Z,1.30
2023-02-19T11:44:03.014Z,1.58
2023-02-19T11:47:30.344Z,1.57
2023-02-19T11:50:36.527Z,1.33
2023-02-19T11:53:49.666Z,1.15
2023-02-19T11:57:14.932Z,1.47
2023-02-19T12:00:29.291Z,1.80
2023-02-19T12:03:51.107Z,1.27
2023-02-19T12:07:07.286Z,0.85
2023-02-19T12:10:18.309Z,0.88
2023-02-19T12:13:33.528Z,0.95
2023-02-19T12:16:43.827Z,0.63
2023-02-19T12:20:11.539Z,0.60
2023-02-19T12:23:24.040Z,0.70
2023-02-19T12:26:30.905Z,0.90
2023-02-19T12:30:02.286Z,0.77
2023-02-19T12:33:27.292Z,0.70
2023-02-19T12:36:44.817Z,0.50
2023-02-19T12:40:13.158Z,0.60
2023-02-19T12:43:23.224Z,1.20
2023-02-19T12:46:32.978Z,1.00
2023-02-19T12:49:37.789Z,1.35
2023-02-19T12:52:46.435Z,1.77
2023-02-19T12:55:49.940Z,0.75
2023-02-19T12:58:59.014Z,0.13
2023-02-19T13:02:20.030Z,0.60
2023-02-19T13:05:25.926Z,0.52
2023-02-19T13:08:45.335Z,0.70
2023-02-19T13:12:27.824Z,0.60
2023-02-19T13:15:42.511Z,0.80
2023-02-19T13:18:48.251Z,0.90
2023-02-19T13:22:21.480Z,1.70
2023-02-19T13:25:48.269Z,3.77
2023-02-19T13:28:53.515Z,1.70
2023-02-19T13:31:59.152Z,1.80
2023-02-19T13:35:20.367Z,1.03
2023-02-19T13:38:24.411Z,1.45
2023-02-19T13:41:28.720Z,8.38
2023-02-19T13:44:41.668Z,3.88
2023-02-19T13:47:57.424Z,4.03
2023-02-19T13:51:27.135Z,17.55
2023-02-19T13:54:31.348Z,10.13
2023-02-19T13:57:35.407Z,2.33
2023-02-19T14:00:50.604Z,3.05
2023-02-19T14:04:17.081Z,1.95
2023-02-19T14:07:26.860Z,2.37
2023-02-19T14:10:58.071Z,2.13
2023-02-19T14:14:06.552Z,1.27
2023-02-19T14:17:09.446Z,1.50
2023-02-19T14:20:15.157Z,1.27
2023-02-19T14:23:24.334Z,0.93
2023-02-19T14:26:27.904Z,3.10
2023-02-19T14:29:30.891Z,1.80
2023-02-19T14:32:33.551Z,0.77
2023-02-19T14:35:40.998Z,4.57
2023-02-19T14:38:59.857Z,2.67
2023-02-19T14:42:07.544Z,2.15
2023-02-19T14:45:10.672Z,1.40
2023-02-19T14:48:21.233Z,1.45
2023-02-19T14:51:41.812Z,1.02
2023-02-19T14:54:54.361Z,1.30
2023-02-19T14:58:00.330Z,0.50
2023-02-19T15:01:05.694Z,0.93
2023-02-19T15:04:25.973Z,0.80
2023-02-19T15:07:33.074Z,0.40
2023-02-19T15:10:36.830Z,1.70
2023-02-19T15:13:45.690Z,4.68
2023-02-19T15:16:49.812Z,1.75
2023-02-19T15:19:53.563Z,1.38
2023-02-19T15:22:59.455Z,3.33
2023-02-19T15:26:02.810Z,2.08
2023-02-19T15:29:19.019Z,5.22
2023-02-19T15:32:27.241Z,3.80
2023-02-19T15:35:32.650Z,2.53
2023-02-19T15:38:35.830Z,4.53
2023-02-19T15:41:38.905Z,2.50
2023-02-19T15:44:55.425Z,1.42
2023-02-19T15:48:15.086Z,1.60
2023-02-19T15:51:24.772Z,2.15
2023-02-19T15:54:45.405Z,2.33
2023-02-19T15:58:04.734Z,1.95
2023-02-19T16:01:26.617Z,1.63
2023-02-19T16:04:30.680Z,1.30
2023-02-19T16:07:33.778Z,2.92
2023-02-19T16:10:39.722Z,3.63
2023-02-19T16:13:42.806Z,2.07
2023-02-19T16:16:48.906Z,2.35
2023-02-19T16:19:53.520Z,1.90
2023-02-19T16:23:01.642Z,0.82
2023-02-19T16:26:04.401Z,1.27
2023-02-19T16:29:20.222Z,2.35
2023-02-19T16:32:23.351Z,1.33
2023-02-19T16:35:37.383Z,1.27
2023-02-19T16:39:03.818Z,1.83
2023-02-19T16:42:14.594Z,2.55
2023-02-19T16:45:18.620Z,3.27
2023-02-19T16:48:22.615Z,4.35
2023-02-19T16:51:27.567Z,2.60
2023-02-19T16:54:30.654Z,1.48
2023-02-19T16:57:33.477Z,2.03
2023-02-19T17:00:36.273Z,1.38
2023-02-19T17:03:39.877Z,1.40
2023-02-19T17:06:44.552Z,0.57
2023-02-19T17:09:47.540Z,1.10
2023-02-19T17:12:52.013Z,0.88
2023-02-19T17:15:55.417Z,2.87
2023-02-19T17:18:59.003Z,5.43
2023-02-19T17:22:02.698Z,2.72
2023-02-19T17:25:05.921Z,2.55
2023-02-19T17:28:08.749Z,2.20
2023-02-19T17:31:13.139Z,1.88
2023-02-19T17:34:16.155Z,1.05
2023-02-19T17:37:19.172Z,1.17
2023-02-19T17:40:32.747Z,1.40
2023-02-19T17:43:36.644Z,1.60
2023-02-19T17:46:39.656Z,4.03
2023-02-19T17:49:43.280Z,1.70
2023-02-19T17:52:46.095Z,1.88
2023-02-19T17:55:49.306Z,1.80
2023-02-19T17:58:56.819Z,1.67
2023-02-19T18:01:59.960Z,1.35
2023-02-19T18:05:03.146Z,1.30
2023-02-19T18:08:06.494Z,0.87
2023-02-19T18:11:09.761Z,1.67
2023-02-19T18:14:13.144Z,1.60
2023-02-19T18:17:16.133Z,0.87
2023-02-19T18:20:23.329Z,1.20
2023-02-19T18:23:26.301Z,1.25
2023-02-19T18:26:29.320Z,1.02
2023-02-19T18:29:34.989Z,0.90
2023-02-19T18:32:38.577Z,1.50
2023-02-19T18:35:41.603Z,3.20
2023-02-19T18:38:44.848Z,2.90
2023-02-19T18:41:49.976Z,2.40
2023-02-19T18:44:53.106Z,2.00
2023-02-19T18:47:56.184Z,1.40
2023-02-19T18:50:59.476Z,1.33
2023-02-19T18:54:04.033Z,0.95
2023-02-19T18:57:08.806Z,1.50
2023-02-19T19:00:20.413Z,2.05
2023-02-19T19:03:24.143Z,0.73
2023-02-19T19:06:27.453Z,1.05
2023-02-19T19:09:30.446Z,1.50
2023-02-19T19:12:33.356Z,0.93
2023-02-19T19:15:36.398Z,1.00
2023-02-19T19:18:39.785Z,1.17
2023-02-19T19:21:43.308Z,0.98
2023-02-19T19:24:46.224Z,1.10
2023-02-19T19:27:52.388Z,1.55
2023-02-19T19:30:55.241Z,1.20
2023-02-19T19:33:58.380Z,1.63
2023-02-19T19:37:01.083Z,1.85
2023-02-19T19:40:04.298Z,2.10
2023-02-19T19:43:07.180Z,1.98
2023-02-19T19:46:10.691Z,2.70
2023-02-19T19:49:18.672Z,2.30
2023-02-19T19:52:21.659Z,2.10
2023-02-19T19:55:24.690Z,2.35
2023-02-19T19:58:28.315Z,1.83
2023-02-19T20:01:31.229Z,2.60
2023-02-19T20:04:34.675Z,2.53
2023-02-19T20:07:37.651Z,2.47
2023-02-19T20:10:40.741Z,2.57
2023-02-19T20:13:43.777Z,3.05
2023-02-19T20:16:47.740Z,2.35
2023-02-19T20:19:50.700Z,2.67
2023-02-19T20:22:53.962Z,3.25
2023-02-19T20:25:57.673Z,3.95
2023-02-19T20:29:00.755Z,3.30
2023-02-19T20:32:04.104Z,1.88
2023-02-19T20:35:07.019Z,2.47
2023-02-19T20:38:14.019Z,3.78
2023-02-19T20:41:17.153Z,3.07
2023-02-19T20:44:19.950Z,3.63
2023-02-19T20:47:23.082Z,3.13
2023-02-19T20:50:27.254Z,2.90
2023-02-19T20:53:31.070Z,2.30
2023-02-19T20:56:33.904Z,2.67
2023-02-19T20:59:38.840Z,3.10
2023-02-19T21:02:42.594Z,2.85
2023-02-19T21:05:45.860Z,3.30
2023-02-19T21:08:48.934Z,2.90
2023-02-19T21:11:53.195Z,1.93
2023-02-19T21:14:56.394Z,2.60
2023-02-19T21:17:59.390Z,2.10
2023-02-19T21:21:02.687Z,2.90
2023-02-19T21:24:06.246Z,2.03
2023-02-19T21:27:09.656Z,2.30
2023-02-19T21:30:12.952Z,2.90
2023-02-19T21:33:16.679Z,2.63
2023-02-19T21:36:19.581Z,3.15
2023-02-19T21:39:24.193Z,2.92
2023-02-19T21:42:27.044Z,2.10
2023-02-19T21:45:30.315Z,2.60
2023-02-19T21:48:33.340Z,2.60
2023-02-19T21:51:38.583Z,3.37
2023-02-19T21:54:41.298Z,2.67
2023-02-19T21:57:43.846Z,2.72
2023-02-19T22:00:46.517Z,3.10
2023-02-19T22:03:49.717Z,1.88
2023-02-19T22:06:55.554Z,3.20
2023-02-19T22:09:58.318Z,2.67
2023-02-19T22:13:01.109Z,2.23
2023-02-19T22:16:03.853Z,2.22
2023-02-19T22:19:06.506Z,2.85
2023-02-19T22:22:09.319Z,3.40
2023-02-19T22:25:12.270Z,2.38
2023-02-19T22:28:15.299Z,1.98
2023-02-19T22:31:20.807Z,2.78
2023-02-19T22:34:23.716Z,2.60
2023-02-19T22:37:27.057Z,2.90
2023-02-19T22:40:29.740Z,2.80
2023-02-19T22:43:32.369Z,2.67
2023-02-19T22:46:34.952Z,2.70
2023-02-19T22:49:39.517Z,2.55
2023-02-19T22:52:42.164Z,2.70
2023-02-19T22:55:45.006Z,2.60
2023-02-19T22:58:48.597Z,3.38
2023-02-19T23:01:52.509Z,3.05
2023-02-19T23:04:55.088Z,2.10
2023-02-19T23:07:57.799Z,2.70
2023-02-19T23:11:00.555Z,2.45
2023-02-19T23:14:03.608Z,2.00
2023-02-19T23:17:06.333Z,2.13
2023-02-19T23:20:09.488Z,2.95
2023-02-19T23:23:12.194Z,2.50
2023-02-19T23:26:16.162Z,2.25
2023-02-19T23:29:23.793Z,2.83
2023-02-19T23:32:27.936Z,2.33
2023-02-19T23:35:31.551Z,2.72
2023-02-19T23:38:34.521Z,2.90
2023-02-19T23:41:37.373Z,2.05
2023-02-19T23:44:40.087Z,2.07
2023-02-19T23:47:42.796Z,1.88
2023-02-19T23:50:46.490Z,3.38
2023-02-19T23:53:49.211Z,1.63
2023-02-19T23:56:51.976Z,2.60
2023-02-19T23:59:54.695Z,2.75
